TimeCDT,TemperatureF,Dew PointF,Humidity,Sea Level PressureIn,VisibilityMPH,Wind Direction,Wind SpeedMPH,Gust SpeedMPH,PrecipitationIn,Events,Conditions,WindDirDegrees,DateUTC
12:15 AM,57.2,51.8,82,30.07,10.0,NNW,5.8,-,N/A,,Clear,340,2013-06-13 05:15:00
12:34 AM,57.2,51.8,82,30.07,10.0,NNW,4.6,-,N/A,,Clear,340,2013-06-13 05:34:00
12:55 AM,57.2,51.8,82,30.07,10.0,NNW,5.8,-,N/A,,Clear,340,2013-06-13 05:55:00
1:15 AM,55.4,51.8,88,30.08,10.0,Calm,Calm,-,N/A,,Clear,0,2013-06-13 06:15:00
1:34 AM,55.4,51.8,88,30.09,10.0,NNW,4.6,-,N/A,,Clear,340,2013-06-13 06:34:00
1:55 AM,55.4,51.8,88,30.10,10.0,NNW,4.6,-,N/A,,Clear,330,2013-06-13 06:55:00
2:14 AM,55.4,51.8,88,30.11,10.0,NW,3.5,-,N/A,,Clear,320,2013-06-13 07:14:00
2:35 AM,55.4,51.8,88,30.11,10.0,NNW,3.5,-,N/A,,Clear,330,2013-06-13 07:35:00
2:55 AM,53.6,51.8,94,30.11,10.0,North,3.5,-,N/A,,Clear,350,2013-06-13 07:55:00
3:15 AM,55.4,53.6,94,30.11,10.0,North,4.6,-,N/A,,Clear,360,2013-06-13 08:15:00
3:35 AM,53.6,53.6,100,30.11,10.0,NNW,4.6,-,N/A,,Clear,340,2013-06-13 08:35:00
3:55 AM,53.6,53.6,100,30.11,10.0,North,4.6,-,N/A,,Clear,360,2013-06-13 08:55:00
4:15 AM,53.6,53.6,100,30.10,10.0,North,4.6,-,N/A,,Clear,10,2013-06-13 09:15:00
4:35 AM,53.6,53.6,100,30.11,10.0,North,4.6,-,N/A,,Clear,10,2013-06-13 09:35:00
4:55 AM,53.6,53.6,100,30.12,10.0,Calm,Calm,-,N/A,,Clear,0,2013-06-13 09:55:00
5:15 AM,51.8,51.8,100,30.14,10.0,NW,3.5,-,N/A,,Clear,310,2013-06-13 10:15:00
5:35 AM,51.8,51.8,100,30.13,10.0,Calm,Calm,-,N/A,,Clear,0,2013-06-13 10:35:00
5:54 AM,53.6,51.8,94,30.14,10.0,Calm,Calm,-,N/A,,Clear,0,2013-06-13 10:54:00
6:15 AM,53.6,53.6,100,30.14,10.0,Calm,Calm,-,N/A,,Clear,0,2013-06-13 11:15:00
6:35 AM,55.4,55.4,100,30.12,10.0,NE,3.5,-,N/A,,Clear,50,2013-06-13 11:35:00
6:54 AM,57.2,55.4,94,30.12,10.0,Calm,Calm,-,N/A,,Clear,0,2013-06-13 11:54:00
7:15 AM,57.2,55.4,94,30.12,10.0,NE,6.9,-,N/A,,Clear,40,2013-06-13 12:15:00
7:35 AM,57.2,55.4,94,30.12,10.0,NE,4.6,-,N/A,,Clear,40,2013-06-13 12:35:00
7:54 AM,59.0,55.4,88,30.13,10.0,Calm,Calm,-,N/A,,Clear,0,2013-06-13 12:54:00
8:15 AM,60.8,57.2,88,30.13,10.0,NE,3.5,-,N/A,,Clear,40,2013-06-13 13:15:00
8:35 AM,62.6,57.2,82,30.14,10.0,ENE,3.5,-,N/A,,Clear,70,2013-06-13 13:35:00
8:54 AM,62.6,55.4,77,30.14,10.0,Calm,Calm,-,N/A,,Clear,0,2013-06-13 13:54:00
9:15 AM,64.4,57.2,77,30.14,10.0,Calm,Calm,-,N/A,,Clear,0,2013-06-13 14:15:00
9:35 AM,66.2,57.2,73,30.14,10.0,Calm,Calm,-,N/A,,Clear,0,2013-06-13 14:35:00
9:54 AM,68.0,55.4,64,30.13,10.0,Calm,Calm,-,N/A,,Clear,0,2013-06-13 14:54:00
10:15 AM,69.8,55.4,60,30.14,10.0,Calm,Calm,-,N/A,,Clear,0,2013-06-13 15:15:00
10:35 AM,71.6,53.6,53,30.14,10.0,NE,4.6,-,N/A,,Clear,50,2013-06-13 15:35:00
10:54 AM,71.6,51.8,50,30.14,10.0,North,3.5,-,N/A,,Clear,10,2013-06-13 15:54:00
11:15 AM,71.6,53.6,53,30.14,10.0,NNE,3.5,-,N/A,,Clear,30,2013-06-13 16:15:00
11:34 AM,71.6,51.8,50,30.14,10.0,North,5.8,-,N/A,,Clear,10,2013-06-13 16:34:00
11:55 AM,73.4,51.8,47,30.14,10.0,North,4.6,-,N/A,,Clear,360,2013-06-13 16:55:00
12:15 PM,73.4,51.8,47,30.14,10.0,East,4.6,-,N/A,,Clear,100,2013-06-13 17:15:00
12:34 PM,73.4,53.6,50,30.13,10.0,NE,6.9,-,N/A,,Clear,40,2013-06-13 17:34:00
12:55 PM,73.4,51.8,47,30.13,10.0,North,5.8,-,N/A,,Clear,10,2013-06-13 17:55:00
1:15 PM,73.4,51.8,47,30.12,10.0,NNW,3.5,-,N/A,,Clear,340,2013-06-13 18:15:00
1:34 PM,75.2,48.2,38,30.11,10.0,NNE,4.6,-,N/A,,Scattered Clouds,20,2013-06-13 18:34:00
1:55 PM,75.2,48.2,38,30.10,10.0,North,4.6,-,N/A,,Scattered Clouds,360,2013-06-13 18:55:00
2:15 PM,75.2,48.2,38,30.10,10.0,Calm,Calm,-,N/A,,Clear,0,2013-06-13 19:15:00
2:34 PM,77.0,48.2,36,30.10,10.0,NE,8.1,-,N/A,,Clear,40,2013-06-13 19:34:00
2:55 PM,77.0,46.4,34,30.09,10.0,East,5.8,-,N/A,,Clear,80,2013-06-13 19:55:00
3:15 PM,78.8,46.4,32,30.08,10.0,ENE,3.5,-,N/A,,Clear,60,2013-06-13 20:15:00
3:34 PM,78.8,42.8,28,30.08,10.0,Calm,Calm,-,N/A,,Clear,0,2013-06-13 20:34:00
3:55 PM,78.8,44.6,30,30.08,10.0,NE,4.6,-,N/A,,Scattered Clouds,50,2013-06-13 20:55:00
4:14 PM,78.8,46.4,32,30.07,10.0,ENE,4.6,-,N/A,,Scattered Clouds,60,2013-06-13 21:14:00
4:35 PM,78.8,41.0,26,30.06,10.0,ESE,4.6,-,N/A,,Clear,110,2013-06-13 21:35:00
4:55 PM,78.8,41.0,26,30.05,10.0,SE,3.5,-,N/A,,Clear,130,2013-06-13 21:55:00
5:14 PM,80.6,41.0,24,30.05,10.0,East,6.9,-,N/A,,Clear,100,2013-06-13 22:14:00
5:35 PM,78.8,39.2,24,30.04,10.0,Calm,Calm,-,N/A,,Clear,0,2013-06-13 22:35:00
5:55 PM,80.6,39.2,23,30.04,10.0,SE,6.9,-,N/A,,Clear,130,2013-06-13 22:55:00
6:14 PM,80.6,41.0,24,30.04,10.0,SE,3.5,-,N/A,,Clear,130,2013-06-13 23:14:00
6:35 PM,80.6,39.2,23,30.03,10.0,SSE,6.9,-,N/A,,Clear,150,2013-06-13 23:35:00
6:55 PM,78.8,41.0,26,30.03,10.0,SE,6.9,-,N/A,,Clear,130,2013-06-13 23:55:00
7:15 PM,78.8,39.2,24,30.03,10.0,ESE,5.8,-,N/A,,Clear,120,2013-06-14 00:15:00
7:35 PM,78.8,41.0,26,30.03,10.0,SE,6.9,-,N/A,,Clear,130,2013-06-14 00:35:00
7:54 PM,78.8,42.8,28,30.02,10.0,ESE,6.9,-,N/A,,Clear,120,2013-06-14 00:54:00
8:15 PM,77.0,42.8,29,30.02,10.0,SE,6.9,-,N/A,,Clear,130,2013-06-14 01:15:00
8:35 PM,75.2,44.6,34,30.02,10.0,ESE,6.9,-,N/A,,Clear,120,2013-06-14 01:35:00
8:54 PM,75.2,46.4,36,30.02,10.0,SE,5.8,-,N/A,,Clear,130,2013-06-14 01:54:00
9:15 PM,73.4,50.0,44,30.03,10.0,SSE,5.8,-,N/A,,Clear,150,2013-06-14 02:15:00
9:35 PM,73.4,51.8,47,30.03,10.0,SE,4.6,-,N/A,,Clear,130,2013-06-14 02:35:00
9:55 PM,71.6,51.8,50,30.03,10.0,SE,4.6,-,N/A,,Clear,130,2013-06-14 02:55:00
10:15 PM,71.6,51.8,50,30.04,10.0,SE,4.6,-,N/A,,Clear,140,2013-06-14 03:15:00
10:35 PM,71.6,51.8,50,30.03,10.0,ESE,5.8,-,N/A,,Clear,120,2013-06-14 03:35:00
10:55 PM,69.8,51.8,53,30.03,10.0,ESE,6.9,-,N/A,,Clear,120,2013-06-14 03:55:00
11:15 PM,69.8,51.8,53,30.03,10.0,ESE,8.1,-,N/A,,Clear,120,2013-06-14 04:15:00
11:34 PM,69.8,53.6,56,30.02,10.0,ESE,8.1,-,N/A,,Clear,120,2013-06-14 04:34:00
11:55 PM,69.8,55.4,60,30.02,10.0,SE,6.9,-,N/A,,Clear,130,2013-06-14 04:55:00